Time;durP1;ratioP1;P1;durP2;ratioP2;P2;SDS_P1;SDS_P2;PMS_P1;PMS_P2;Temp;Humidity;BMP_temperature;BMP_pressure;BME280_temperature;BME280_humidity;BME280_pressure;Samples;Min_cycle;Max_cycle;Signal;HPM_P1;HPM_P2
2023/12/28 00:01:41;;;;;;;66.25;39.58;;;9.60;78.00;;;;;;5076358;28;20101;-64
2023/12/28 00:04:07;;;;;;;74.97;41.35;;;9.60;77.90;;;;;;5076546;28;20023;-64
2023/12/28 00:06:34;;;;;;;76.15;42.53;;;9.60;78.00;;;;;;5076502;28;20047;-64
2023/12/28 00:09:03;;;;;;;70.78;40.35;;;9.60;77.90;;;;;;5076753;28;20024;-64
2023/12/28 00:11:30;;;;;;;76.15;43.30;;;9.60;77.90;;;;;;5076718;28;20056;-64
2023/12/28 00:13:56;;;;;;;77.05;43.60;;;9.60;78.00;;;;;;5076347;28;20031;-64
2023/12/28 00:16:23;;;;;;;71.97;42.45;;;9.60;78.00;;;;;;5075880;28;20040;-64
2023/12/28 00:18:49;;;;;;;73.13;42.95;;;9.60;78.00;;;;;;5076577;28;20028;-64
2023/12/28 00:21:14;;;;;;;67.18;37.85;;;9.60;78.10;;;;;;5076222;28;20031;-64
2023/12/28 00:23:41;;;;;;;73.20;42.35;;;9.60;78.10;;;;;;5076425;28;20031;-64
2023/12/28 00:26:07;;;;;;;76.72;43.30;;;9.60;78.10;;;;;;5074841;28;20046;-64
2023/12/28 00:28:34;;;;;;;87.50;48.67;;;9.60;78.00;;;;;;5075882;28;20044;-62
2023/12/28 00:31:01;;;;;;;85.45;47.95;;;9.60;78.00;;;;;;5076024;28;20017;-65
2023/12/28 00:33:27;;;;;;;72.10;41.67;;;9.60;78.10;;;;;;5075953;28;20024;-63
2023/12/28 00:35:53;;;;;;;73.47;42.17;;;9.50;78.10;;;;;;5075680;28;20433;-65
2023/12/28 00:38:21;;;;;;;77.57;43.92;;;9.50;78.20;;;;;;5075984;28;20035;-65
2023/12/28 00:40:47;;;;;;;75.53;41.15;;;9.50;78.20;;;;;;5076190;28;20028;-64
2023/12/28 00:43:14;;;;;;;71.63;40.85;;;9.50;78.20;;;;;;5074610;28;20492;-62
2023/12/28 00:45:40;;;;;;;71.38;42.70;;;9.50;78.20;;;;;;5075545;28;20028;-65
2023/12/28 00:48:06;;;;;;;67.72;39.70;;;9.60;78.30;;;;;;5076091;28;20032;-64
2023/12/28 00:50:32;;;;;;;67.97;40.13;;;9.50;78.20;;;;;;5075497;28;20449;-64
2023/12/28 00:52:58;;;;;;;74.88;41.58;;;9.50;78.10;;;;;;5076048;28;20029;-63
2023/12/28 00:55:27;;;;;;;65.82;39.28;;;9.60;78.10;;;;;;5075635;28;20068;-63
2023/12/28 00:57:54;;;;;;;75.32;43.90;;;9.60;78.20;;;;;;5075361;28;20453;-63
2023/12/28 01:00:20;;;;;;;75.63;42.33;;;9.60;78.30;;;;;;5075969;28;20112;-65
2023/12/28 01:02:49;;;;;;;75.60;43.30;;;9.60;78.20;;;;;;5075933;28;20027;-63
2023/12/28 01:05:15;;;;;;;68.63;40.75;;;9.60;78.30;;;;;;5075280;28;20089;-63
2023/12/28 01:07:41;;;;;;;69.30;39.95;;;9.60;78.20;;;;;;5075381;28;20456;-63
2023/12/28 01:10:07;;;;;;;65.03;37.90;;;9.60;78.30;;;;;;5075569;28;20067;-63
2023/12/28 01:12:33;;;;;;;69.47;39.45;;;9.60;78.30;;;;;;5075591;28;20550;-63
2023/12/28 01:15:00;;;;;;;79.00;44.03;;;9.60;78.30;;;;;;5075036;28;20064;-63
2023/12/28 01:17:26;;;;;;;69.28;40.65;;;9.60;78.30;;;;;;5075772;28;20017;-63
2023/12/28 01:19:52;;;;;;;68.88;40.28;;;9.60;78.20;;;;;;5075254;28;20093;-65
2023/12/28 01:22:18;;;;;;;70.43;39.17;;;9.60;78.10;;;;;;5075251;28;20021;-63
2023/12/28 01:24:47;;;;;;;67.88;40.28;;;9.60;78.10;;;;;;5075295;28;20044;-64
2023/12/28 01:27:13;;;;;;;66.93;41.17;;;9.60;78.10;;;;;;5075197;28;20036;-64
2023/12/28 01:29:39;;;;;;;67.90;39.50;;;9.60;78.20;;;;;;5075060;28;20060;-65
2023/12/28 01:32:05;;;;;;;64.03;38.80;;;9.60;78.20;;;;;;5075153;28;20410;-64
2023/12/28 01:34:31;;;;;;;71.30;40.22;;;9.60;78.30;;;;;;5076321;28;20053;-64
2023/12/28 01:36:57;;;;;;;71.97;40.20;;;9.60;78.20;;;;;;5079079;28;20352;-64
2023/12/28 01:39:23;;;;;;;74.20;42.35;;;9.60;78.30;;;;;;5079684;28;20032;-63
2023/12/28 01:41:49;;;;;;;68.55;41.05;;;9.50;78.20;;;;;;5079085;28;20017;-63
2023/12/28 01:44:15;;;;;;;65.70;39.35;;;9.60;78.30;;;;;;5079381;28;20024;-63
2023/12/28 01:46:42;;;;;;;68.82;39.85;;;9.60;78.30;;;;;;5079244;28;20464;-64
2023/12/28 01:49:08;;;;;;;66.60;37.95;;;9.50;78.30;;;;;;5078847;28;20433;-63
2023/12/28 01:51:34;;;;;;;76.53;42.50;;;9.60;78.30;;;;;;5079410;28;20028;-64
2023/12/28 01:54:01;;;;;;;76.60;42.97;;;9.50;78.30;;;;;;5078765;28;20361;-64
2023/12/28 01:56:27;;;;;;;77.00;41.78;;;9.60;78.30;;;;;;5078788;28;20008;-65
2023/12/28 01:58:53;;;;;;;86.45;45.30;;;9.60;78.30;;;;;;5078995;28;20517;-63
2023/12/28 02:04:14;;;;;;;71.68;41.88;;;9.60;78.40;;;;;;5275531;22;20064;-64
2023/12/28 02:06:41;;;;;;;68.75;37.90;;;9.60;78.30;;;;;;5078551;28;20112;-64
2023/12/28 02:09:07;;;;;;;69.18;39.72;;;9.60;78.30;;;;;;5079108;28;20051;-65
2023/12/28 02:11:33;;;;;;;68.78;40.80;;;9.60;78.20;;;;;;5079051;28;20441;-64
2023/12/28 02:13:59;;;;;;;64.00;37.88;;;9.50;78.30;;;;;;5078683;28;20029;-64
2023/12/28 02:16:38;;;;;;;67.70;39.38;;;9.60;78.40;;;;;;5078661;28;20017;-64
2023/12/28 02:19:28;;;;;;;67.93;38.65;;;9.60;78.30;;;;;;5078654;28;20024;-64
2023/12/28 02:21:55;;;;;;;71.10;38.97;;;9.60;78.30;;;;;;5078882;28;20086;-64
2023/12/28 02:24:21;;;;;;;65.72;39.70;;;9.60;78.40;;;;;;5077244;28;20028;-64
2023/12/28 02:26:47;;;;;;;62.85;38.42;;;9.60;78.30;;;;;;5078523;28;20525;-64
2023/12/28 02:29:13;;;;;;;61.30;35.90;;;9.60;78.40;;;;;;5078652;28;20028;-64
2023/12/28 02:31:46;;;;;;;63.25;39.80;;;9.50;78.30;;;;;;5078662;28;20027;-64
2023/12/28 02:34:22;;;;;;;66.28;37.30;;;9.50;78.40;;;;;;5078342;28;20360;-64
2023/12/28 02:36:50;;;;;;;62.38;36.65;;;9.50;78.30;;;;;;5078350;28;20408;-64
2023/12/28 02:39:18;;;;;;;63.28;37.03;;;9.50;78.30;;;;;;5077977;28;20024;-64
2023/12/28 02:41:45;;;;;;;72.03;39.42;;;9.50;78.30;;;;;;5077979;28;20425;-64
2023/12/28 02:44:12;;;;;;;68.28;38.20;;;9.50;78.40;;;;;;5078115;28;20117;-65
2023/12/28 02:46:38;;;;;;;68.20;39.92;;;9.50;78.50;;;;;;5077215;28;20083;-64
2023/12/28 02:49:05;;;;;;;68.78;39.33;;;9.50;78.50;;;;;;5078030;28;20020;-65
2023/12/28 02:51:31;;;;;;;63.80;37.22;;;9.50;78.50;;;;;;5077714;28;20025;-64
2023/12/28 02:53:57;;;;;;;61.88;37.30;;;9.50;78.50;;;;;;5077923;28;20062;-64
2023/12/28 02:56:23;;;;;;;61.70;36.25;;;9.50;78.50;;;;;;5077938;28;20033;-64
2023/12/28 02:58:49;;;;;;;61.42;36.85;;;9.40;78.50;;;;;;5077654;28;20013;-64
2023/12/28 03:01:15;;;;;;;64.70;37.85;;;9.40;78.40;;;;;;5078209;28;20029;-64
2023/12/28 03:03:40;;;;;;;57.55;33.95;;;9.40;78.50;;;;;;5077265;28;20432;-64
2023/12/28 03:06:06;;;;;;;63.67;36.75;;;9.40;78.40;;;;;;5077531;28;20086;-64
2023/12/28 03:08:32;;;;;;;59.75;36.20;;;9.40;78.50;;;;;;5077985;28;20033;-64
2023/12/28 03:10:58;;;;;;;66.85;39.08;;;9.40;78.50;;;;;;5077393;28;20408;-64
2023/12/28 03:13:25;;;;;;;68.25;40.38;;;9.40;78.40;;;;;;5077841;28;20029;-64
2023/12/28 03:15:50;;;;;;;69.47;39.08;;;9.40;78.40;;;;;;5077571;28;20438;-64
2023/12/28 03:18:16;;;;;;;65.25;37.42;;;9.40;78.50;;;;;;5077292;28;20020;-64
2023/12/28 03:20:42;;;;;;;64.97;37.60;;;9.40;78.50;;;;;;5077776;28;20123;-64
2023/12/28 03:23:08;;;;;;;61.58;36.83;;;9.40;78.60;;;;;;5077132;28;20027;-64
2023/12/28 03:25:34;;;;;;;66.63;39.20;;;9.40;78.60;;;;;;5077082;28;20095;-62
2023/12/28 03:28:00;;;;;;;63.75;36.83;;;9.40;78.60;;;;;;5077331;28;20059;-64
2023/12/28 03:30:26;;;;;;;61.05;36.20;;;9.40;78.60;;;;;;5355748;22;20056;-63
2023/12/28 03:32:52;;;;;;;55.55;35.65;;;9.30;78.70;;;;;;5077555;28;20477;-63
2023/12/28 03:35:18;;;;;;;60.22;36.00;;;9.40;78.70;;;;;;5077199;28;20033;-63
2023/12/28 03:37:44;;;;;;;63.00;36.55;;;9.40;78.70;;;;;;5077441;28;20027;-63
2023/12/28 03:40:10;;;;;;;64.82;39.22;;;9.40;78.70;;;;;;5077008;28;20029;-63
2023/12/28 03:42:38;;;;;;;62.42;36.28;;;9.40;78.70;;;;;;5355795;22;20056;-63
2023/12/28 03:45:04;;;;;;;70.30;40.03;;;9.40;78.70;;;;;;5077052;28;20041;-63
2023/12/28 03:47:30;;;;;;;63.58;34.65;;;9.40;78.60;;;;;;5076650;28;20455;-64
2023/12/28 03:49:57;;;;;;;70.20;39.53;;;9.40;78.70;;;;;;5077134;28;20036;-63
2023/12/28 03:52:26;;;;;;;57.05;35.45;;;9.40;78.70;;;;;;5076811;28;20025;-64
2023/12/28 03:54:52;;;;;;;54.72;32.78;;;9.40;78.70;;;;;;5077048;28;20024;-62
2023/12/28 03:57:18;;;;;;;61.40;35.58;;;9.40;78.70;;;;;;5076204;28;20515;-64
2023/12/28 03:59:44;;;;;;;63.92;36.80;;;9.40;78.60;;;;;;5076478;28;20033;-64
2023/12/28 04:02:09;;;;;;;57.90;34.92;;;9.40;78.50;;;;;;5076569;28;20028;-64
2023/12/28 04:04:36;;;;;;;60.85;34.70;;;9.40;78.50;;;;;;5076334;28;20345;-64
2023/12/28 04:07:02;;;;;;;59.35;35.88;;;9.40;78.60;;;;;;5076299;28;20021;-64
2023/12/28 04:09:28;;;;;;;60.33;35.63;;;9.40;78.60;;;;;;5076688;28;20108;-64
2023/12/28 04:11:54;;;;;;;60.05;35.28;;;9.40;78.60;;;;;;5076137;28;20016;-65
2023/12/28 04:14:20;;;;;;;57.20;33.42;;;9.40;78.50;;;;;;5355417;22;20085;-63
2023/12/28 04:16:46;;;;;;;57.92;33.85;;;9.40;78.50;;;;;;5076705;28;20025;-63
2023/12/28 04:19:12;;;;;;;53.83;32.95;;;9.40;78.40;;;;;;5076632;28;20025;-64
2023/12/28 04:21:38;;;;;;;56.85;34.60;;;9.40;78.40;;;;;;5076567;28;20024;-64
2023/12/28 04:24:04;;;;;;;58.80;34.88;;;9.40;78.50;;;;;;5075909;28;20028;-64
2023/12/28 04:26:30;;;;;;;55.97;31.58;;;9.40;78.40;;;;;;5075935;28;20486;-64
2023/12/28 04:28:56;;;;;;;55.22;31.58;;;9.40;78.50;;;;;;5076160;28;20108;-65
2023/12/28 04:31:22;;;;;;;54.55;30.67;;;9.40;78.40;;;;;;5075807;28;20112;-62
2023/12/28 04:33:48;;;;;;;55.28;32.75;;;9.40;78.30;;;;;;5076072;28;20021;-64
2023/12/28 04:36:14;;;;;;;49.42;29.83;;;9.40;78.30;;;;;;5075802;28;20349;-64
2023/12/28 04:38:40;;;;;;;54.13;30.85;;;9.40;78.30;;;;;;5075760;28;20472;-64
2023/12/28 04:41:06;;;;;;;50.20;30.10;;;9.40;78.20;;;;;;5074706;28;20020;-65
2023/12/28 04:43:32;;;;;;;50.72;30.30;;;9.40;78.20;;;;;;5075697;28;20056;-63
2023/12/28 04:46:02;;;;;;;50.17;28.60;;;9.40;78.20;;;;;;5075670;28;20551;-64
2023/12/28 04:48:28;;;;;;;46.30;27.88;;;9.40;78.20;;;;;;5075883;28;20036;-63
2023/12/28 04:50:54;;;;;;;46.53;28.58;;;9.40;78.20;;;;;;5074538;28;20507;-63
2023/12/28 04:53:20;;;;;;;49.00;29.15;;;9.40;78.20;;;;;;5075495;28;20024;-64
2023/12/28 04:55:45;;;;;;;47.80;28.42;;;9.40;78.10;;;;;;5075557;28;20024;-63
2023/12/28 04:58:14;;;;;;;49.15;27.88;;;9.40;78.00;;;;;;5076029;28;20035;-63
2023/12/28 05:00:40;;;;;;;46.85;26.83;;;9.40;78.10;;;;;;5075416;28;20029;-63
2023/12/28 05:03:07;;;;;;;47.78;28.38;;;9.40;78.10;;;;;;5075594;28;20040;-63
2023/12/28 05:05:33;;;;;;;44.92;27.05;;;9.40;78.00;;;;;;5075682;28;20024;-63
2023/12/28 05:07:59;;;;;;;44.70;27.55;;;9.40;77.90;;;;;;5075157;28;20028;-63
2023/12/28 05:10:25;;;;;;;43.25;25.23;;;9.40;78.00;;;;;;5075114;28;20024;-63
2023/12/28 05:12:51;;;;;;;41.40;25.52;;;9.40;77.90;;;;;;5075301;28;20103;-63
2023/12/28 05:15:19;;;;;;;44.10;26.40;;;9.40;77.90;;;;;;5075088;28;20057;-63
2023/12/28 05:17:45;;;;;;;44.20;26.27;;;9.40;77.90;;;;;;5075226;28;20113;-65
2023/12/28 05:20:11;;;;;;;41.30;25.75;;;9.40;77.80;;;;;;5075290;28;20024;-64
2023/12/28 05:22:37;;;;;;;47.53;26.38;;;9.40;77.90;;;;;;5075264;28;20445;-64
2023/12/28 05:25:04;;;;;;;43.75;25.50;;;9.40;77.80;;;;;;5075208;28;20038;-64
2023/12/28 05:27:30;;;;;;;39.35;23.67;;;9.40;77.80;;;;;;5075173;28;20503;-64
2023/12/28 05:29:56;;;;;;;44.17;26.33;;;9.40;77.80;;;;;;5075100;28;20442;-62
2023/12/28 05:32:22;;;;;;;49.60;29.48;;;9.40;77.80;;;;;;5075170;28;20021;-64
2023/12/28 05:34:50;;;;;;;42.10;24.60;;;9.40;77.70;;;;;;5075122;28;20028;-64
2023/12/28 05:37:16;;;;;;;42.10;26.35;;;9.30;77.70;;;;;;5075308;28;20369;-64
2023/12/28 05:39:42;;;;;;;42.05;26.35;;;9.40;77.80;;;;;;5075590;28;20025;-65
2023/12/28 05:42:08;;;;;;;46.92;26.30;;;9.40;77.80;;;;;;5075047;28;20035;-64
2023/12/28 05:44:34;;;;;;;44.83;25.30;;;9.30;77.80;;;;;;5074986;28;20250;-65
2023/12/28 05:47:00;;;;;;;43.15;24.85;;;9.30;77.80;;;;;;5074996;28;20024;-63
2023/12/28 05:49:28;;;;;;;40.45;25.20;;;9.40;77.80;;;;;;5075118;28;20043;-63
2023/12/28 05:51:54;;;;;;;40.42;25.88;;;9.30;77.90;;;;;;5075237;28;20035;-63
2023/12/28 05:54:21;;;;;;;41.25;24.10;;;9.40;77.90;;;;;;5074871;28;20025;-63
2023/12/28 05:56:47;;;;;;;34.85;21.92;;;9.40;77.90;;;;;;5075411;28;20430;-64
2023/12/28 05:59:13;;;;;;;40.28;23.73;;;9.40;77.90;;;;;;5074921;28;20020;-63
2023/12/28 06:01:43;;;;;;;43.60;24.85;;;9.30;77.90;;;;;;5075086;28;20021;-63
2023/12/28 06:04:09;;;;;;;40.92;24.90;;;9.30;77.90;;;;;;5074715;28;20035;-63
2023/12/28 06:06:36;;;;;;;44.70;24.55;;;9.40;77.80;;;;;;5075094;28;20055;-63
2023/12/28 06:09:03;;;;;;;42.60;24.92;;;9.30;77.80;;;;;;5074745;28;20036;-63
2023/12/28 06:11:30;;;;;;;40.20;24.45;;;9.30;77.90;;;;;;5074650;28;20036;-63
2023/12/28 06:13:56;;;;;;;37.22;22.60;;;9.30;78.00;;;;;;5074485;28;20120;-63
2023/12/28 06:16:22;;;;;;;42.72;24.58;;;9.30;77.90;;;;;;5075336;28;20063;-63
2023/12/28 06:18:49;;;;;;;39.50;24.83;;;9.30;77.80;;;;;;5074967;28;20468;-63
2023/12/28 06:21:15;;;;;;;37.08;22.92;;;9.30;77.80;;;;;;5078300;28;20363;-63
2023/12/28 06:23:41;;;;;;;39.50;22.75;;;9.30;77.70;;;;;;5078801;28;20070;-63
2023/12/28 06:26:07;;;;;;;34.40;21.02;;;9.30;77.60;;;;;;5078249;28;20333;-63
2023/12/28 06:28:33;;;;;;;34.50;21.88;;;9.30;77.40;;;;;;5078239;28;20073;-63
2023/12/28 06:31:00;;;;;;;40.42;24.20;;;9.30;77.30;;;;;;5078392;28;20059;-63
2023/12/28 06:33:29;;;;;;;32.42;19.85;;;9.30;77.40;;;;;;5077944;28;20096;-63
2023/12/28 06:35:57;;;;;;;31.20;18.88;;;9.30;77.40;;;;;;5078075;28;20131;-63
2023/12/28 06:38:25;;;;;;;30.90;18.73;;;9.30;77.40;;;;;;5078327;28;20164;-63
2023/12/28 06:40:51;;;;;;;28.50;17.27;;;9.30;77.30;;;;;;5078024;28;20035;-63
2023/12/28 06:43:17;;;;;;;30.10;18.20;;;9.30;77.20;;;;;;5077885;28;20449;-63
2023/12/28 06:45:44;;;;;;;30.50;17.13;;;9.30;77.20;;;;;;5078446;28;20044;-63
2023/12/28 06:48:10;;;;;;;33.05;19.33;;;9.40;77.30;;;;;;5078108;28;20044;-63
2023/12/28 06:50:36;;;;;;;30.48;18.23;;;9.40;77.20;;;;;;5076772;28;20025;-63
2023/12/28 06:53:02;;;;;;;29.98;18.08;;;9.40;77.10;;;;;;5076764;28;20104;-63
2023/12/28 06:55:28;;;;;;;31.25;17.15;;;9.40;77.00;;;;;;5077745;28;20489;-63
2023/12/28 06:57:54;;;;;;;34.80;19.70;;;9.40;76.90;;;;;;5078247;28;20020;-63
2023/12/28 07:00:20;;;;;;;33.30;17.65;;;9.40;76.90;;;;;;5077910;28;20025;-63
2023/12/28 07:02:46;;;;;;;26.60;14.93;;;9.40;76.80;;;;;;5078139;28;20323;-63
2023/12/28 07:05:13;;;;;;;33.55;17.38;;;9.40;76.70;;;;;;5077498;28;20079;-63
2023/12/28 07:07:39;;;;;;;25.70;15.73;;;9.40;76.60;;;;;;5077454;28;20028;-63
2023/12/28 07:10:06;;;;;;;30.67;16.45;;;9.40;76.50;;;;;;5077666;28;20029;-63
2023/12/28 07:12:32;;;;;;;26.67;15.30;;;9.40;76.50;;;;;;5077790;28;20092;-63
2023/12/28 07:14:58;;;;;;;26.80;14.02;;;9.40;76.60;;;;;;5077141;28;20507;-63
2023/12/28 07:17:24;;;;;;;26.52;15.75;;;9.40;76.50;;;;;;5077604;28;20024;-64
2023/12/28 07:19:50;;;;;;;25.70;15.13;;;9.50;76.50;;;;;;5077764;28;20031;-62
2023/12/28 07:22:16;;;;;;;27.15;15.98;;;9.40;76.50;;;;;;5077130;28;20058;-63
2023/12/28 07:24:42;;;;;;;27.65;16.65;;;9.40;76.40;;;;;;5077086;28;20040;-63
2023/12/28 07:27:08;;;;;;;28.23;17.08;;;9.50;76.40;;;;;;5077152;28;20107;-63
2023/12/28 07:29:34;;;;;;;27.13;17.67;;;9.50;76.50;;;;;;5077317;28;20040;-63
2023/12/28 07:32:00;;;;;;;31.10;19.10;;;9.50;76.30;;;;;;5076883;28;20013;-63
2023/12/28 07:34:27;;;;;;;30.98;19.13;;;9.50;76.30;;;;;;5077419;28;20028;-63
2023/12/28 07:36:54;;;;;;;26.58;17.38;;;9.50;76.30;;;;;;5076854;28;20016;-63
2023/12/28 07:39:20;;;;;;;29.88;17.90;;;9.50;76.30;;;;;;5076857;28;20449;-63
2023/12/28 07:41:46;;;;;;;29.48;17.73;;;9.50;76.40;;;;;;5076862;28;20040;-63
2023/12/28 07:44:12;;;;;;;27.25;17.85;;;9.50;76.40;;;;;;5076952;28;20030;-63
2023/12/28 07:46:38;;;;;;;27.75;17.40;;;9.50;76.40;;;;;;5076705;28;20091;-63
2023/12/28 07:49:04;;;;;;;30.38;18.20;;;9.50;76.40;;;;;;5076699;28;20525;-63
2023/12/28 07:51:30;;;;;;;35.92;21.48;;;9.50;76.40;;;;;;5077064;28;20457;-63
2023/12/28 07:53:57;;;;;;;36.78;22.80;;;9.50;76.40;;;;;;5076829;28;20364;-63
2023/12/28 07:56:24;;;;;;;36.47;22.00;;;9.50;76.40;;;;;;5076810;28;20020;-63
2023/12/28 07:58:50;;;;;;;41.08;24.73;;;9.50;76.50;;;;;;5076762;28;20048;-63
2023/12/28 08:03:46;;;;;;;48.72;28.00;;;9.60;76.40;;;;;;5353124;22;20045;-73
2023/12/28 08:06:13;;;;;;;43.50;27.17;;;9.60;76.40;;;;;;5076505;28;20020;-73
2023/12/28 08:08:40;;;;;;;33.30;21.70;;;9.60;76.40;;;;;;5076281;28;20028;-73
2023/12/28 08:11:07;;;;;;;35.60;20.55;;;9.70;76.40;;;;;;5076632;28;20336;-71
2023/12/28 08:13:32;;;;;;;32.03;20.38;;;9.70;76.30;;;;;;5076054;28;20356;-71
2023/12/28 08:16:00;;;;;;;33.20;20.05;;;9.70;76.10;;;;;;5076367;28;20020;-71
2023/12/28 08:18:26;;;;;;;37.60;22.65;;;9.70;76.10;;;;;;5075110;28;20112;-71
2023/12/28 08:20:52;;;;;;;32.85;19.98;;;9.80;76.10;;;;;;5075058;28;20029;-72
2023/12/28 08:23:19;;;;;;;30.48;19.90;;;9.80;76.10;;;;;;5074862;28;20032;-72
2023/12/28 08:25:47;;;;;;;32.83;20.17;;;9.80;75.90;;;;;;5075907;28;20020;-72
2023/12/28 08:28:13;;;;;;;34.35;20.60;;;9.80;76.00;;;;;;5076418;28;20050;-71
2023/12/28 08:30:40;;;;;;;33.60;21.40;;;9.90;76.10;;;;;;5075761;28;20028;-70
2023/12/28 08:33:06;;;;;;;34.53;21.58;;;9.90;76.10;;;;;;5075726;28;20024;-70
2023/12/28 08:35:36;;;;;;;32.03;19.95;;;9.90;76.20;;;;;;5076036;28;20045;-70
2023/12/28 08:38:02;;;;;;;39.33;21.92;;;9.90;76.20;;;;;;5075977;28;20118;-74
2023/12/28 08:40:28;;;;;;;35.20;21.05;;;9.90;76.10;;;;;;5075702;28;20082;-71
2023/12/28 08:42:54;;;;;;;31.30;19.52;;;10.00;75.90;;;;;;5071587;28;20466;-70
2023/12/28 08:45:21;;;;;;;33.47;20.70;;;10.00;75.90;;;;;;5055248;28;20090;-73
2023/12/28 08:47:46;;;;;;;31.38;19.15;;;10.00;76.00;;;;;;5055322;28;20029;-72
2023/12/28 08:50:12;;;;;;;32.17;19.90;;;10.10;76.00;;;;;;5055419;28;20029;-72
2023/12/28 08:52:38;;;;;;;35.67;20.10;;;10.10;75.90;;;;;;5055997;28;20029;-72
2023/12/28 08:55:06;;;;;;;33.00;20.10;;;10.10;75.90;;;;;;5055450;28;20350;-72
2023/12/28 08:57:31;;;;;;;34.80;19.52;;;10.20;75.60;;;;;;5054418;28;20453;-73
2023/12/28 09:00:00;;;;;;;32.78;19.10;;;10.20;75.50;;;;;;5054274;28;20074;-72
2023/12/28 09:02:29;;;;;;;30.63;18.63;;;10.30;75.40;;;;;;5054500;28;20107;-71
2023/12/28 09:04:55;;;;;;;29.60;16.88;;;10.30;75.20;;;;;;5055599;28;20504;-73
2023/12/28 09:07:21;;;;;;;25.65;15.50;;;10.30;74.80;;;;;;5055254;28;20171;-71
2023/12/28 09:09:47;;;;;;;23.83;15.50;;;10.40;74.70;;;;;;5055204;28;20037;-73
2023/12/28 09:12:13;;;;;;;35.60;18.98;;;10.40;73.70;;;;;;5055077;28;20450;-73
2023/12/28 09:14:39;;;;;;;30.40;18.60;;;10.50;73.40;;;;;;5055209;28;20122;-73
2023/12/28 09:17:06;;;;;;;36.35;22.50;;;10.50;73.30;;;;;;5055653;28;20033;-73
2023/12/28 09:19:32;;;;;;;36.00;21.45;;;10.60;73.90;;;;;;5055407;28;20029;-73
2023/12/28 09:21:59;;;;;;;34.70;20.13;;;10.60;74.10;;;;;;5055140;28;20354;-73
2023/12/28 09:24:25;;;;;;;27.42;17.38;;;10.70;74.00;;;;;;5055003;28;20021;-72
2023/12/28 09:26:51;;;;;;;28.40;17.20;;;10.70;73.80;;;;;;5055618;28;20017;-72
2023/12/28 09:29:17;;;;;;;27.67;16.38;;;10.70;73.70;;;;;;5055081;28;20152;-73
2023/12/28 09:31:46;;;;;;;30.73;18.55;;;10.80;73.50;;;;;;5055500;28;20025;-72
2023/12/28 09:34:12;;;;;;;28.25;16.58;;;10.80;73.30;;;;;;5055014;28;20445;-72
2023/12/28 09:36:38;;;;;;;27.55;15.68;;;10.90;73.00;;;;;;5055509;28;20025;-73
2023/12/28 09:39:06;;;;;;;29.27;17.10;;;10.90;73.10;;;;;;5054916;28;20036;-73
2023/12/28 09:41:40;;;;;;;29.90;17.55;;;10.90;72.90;;;;;;5055483;28;20025;-72
2023/12/28 09:44:13;;;;;;;28.05;18.33;;;11.00;72.80;;;;;;5055641;28;20029;-72
2023/12/28 09:46:44;;;;;;;28.17;16.73;;;11.00;72.60;;;;;;5055379;28;20053;-73
2023/12/28 09:49:11;;;;;;;29.25;18.70;;;11.10;72.60;;;;;;5055126;28;20354;-72
2023/12/28 09:51:37;;;;;;;28.15;17.98;;;11.10;72.50;;;;;;5054739;28;20096;-73
2023/12/28 09:54:07;;;;;;;27.52;17.45;;;11.10;72.50;;;;;;5055027;28;20054;-73
2023/12/28 09:56:34;;;;;;;34.92;19.70;;;11.10;72.60;;;;;;5057656;28;20036;-72
2023/12/28 09:59:02;;;;;;;35.15;20.10;;;11.20;72.50;;;;;;5058684;28;20103;-73
2023/12/28 10:01:28;;;;;;;28.83;17.75;;;11.20;72.50;;;;;;5058730;28;20457;-72
2023/12/28 10:03:54;;;;;;;25.23;15.25;;;11.30;72.40;;;;;;5058474;28;20045;-73
2023/12/28 10:06:21;;;;;;;28.92;15.77;;;11.20;72.40;;;;;;5058875;28;20075;-72
2023/12/28 10:08:48;;;;;;;26.58;15.32;;;11.30;72.20;;;;;;5059037;28;20063;-73
2023/12/28 10:11:16;;;;;;;23.35;14.70;;;11.30;71.90;;;;;;5058702;28;20024;-72
2023/12/28 10:13:44;;;;;;;27.95;15.15;;;11.40;71.70;;;;;;5058337;28;20033;-72
2023/12/28 10:16:12;;;;;;;24.65;14.05;;;11.40;71.60;;;;;;5058420;28;20028;-72
2023/12/28 10:18:44;;;;;;;25.17;14.70;;;11.40;71.40;;;;;;5058076;28;20056;-72
2023/12/28 10:21:11;;;;;;;27.00;15.65;;;11.40;71.50;;;;;;5041220;28;20108;-71
2023/12/28 10:23:41;;;;;;;25.25;15.15;;;11.40;71.20;;;;;;5038447;28;20076;-71
2023/12/28 10:26:08;;;;;;;32.25;19.35;;;11.50;71.30;;;;;;5038211;28;20029;-71
2023/12/28 10:28:39;;;;;;;33.22;20.38;;;11.50;71.20;;;;;;5037805;28;20053;-70
2023/12/28 10:31:06;;;;;;;38.05;19.23;;;11.50;71.00;;;;;;5037857;28;20449;-72
2023/12/28 10:33:38;;;;;;;31.23;18.40;;;11.50;70.90;;;;;;5037187;28;20300;-73
2023/12/28 10:36:07;;;;;;;31.38;18.58;;;11.60;71.10;;;;;;5037686;28;20030;-71
2023/12/28 10:38:37;;;;;;;34.10;19.30;;;11.60;71.10;;;;;;5038497;28;20521;-71
2023/12/28 10:41:11;;;;;;;31.95;18.88;;;11.60;71.20;;;;;;5037993;28;20087;-71
2023/12/28 10:44:03;;;;;;;32.15;19.00;;;11.60;71.10;;;;;;5037832;28;20101;-71
2023/12/28 10:46:31;;;;;;;31.25;18.92;;;11.70;71.00;;;;;;5038188;28;20450;-71
2023/12/28 10:49:09;;;;;;;29.05;18.88;;;11.70;70.90;;;;;;5037802;28;20052;-71
2023/12/28 10:51:39;;;;;;;27.20;17.55;;;11.70;71.10;;;;;;5038004;28;20029;-71
2023/12/28 10:54:13;;;;;;;34.42;18.67;;;11.70;70.80;;;;;;5037774;28;20022;-71
2023/12/28 10:56:47;;;;;;;31.25;19.05;;;11.80;70.80;;;;;;5037931;28;20473;-71
2023/12/28 10:59:27;;;;;;;31.75;18.38;;;11.80;70.70;;;;;;5037306;28;20476;-71
2023/12/28 11:01:56;;;;;;;33.58;18.15;;;11.80;70.80;;;;;;5038117;28;20021;-72
2023/12/28 11:04:42;;;;;;;37.15;18.50;;;11.90;70.40;;;;;;5037252;28;20084;-71
2023/12/28 11:07:15;;;;;;;32.80;17.80;;;11.90;70.30;;;;;;5036952;28;20096;-71
2023/12/28 11:09:44;;;;;;;33.07;20.17;;;11.90;70.20;;;;;;5037884;28;20075;-71
2023/12/28 11:12:11;;;;;;;34.92;20.27;;;11.90;70.10;;;;;;5037626;28;20025;-71
2023/12/28 11:14:41;;;;;;;32.35;18.63;;;11.90;69.70;;;;;;5037317;28;20346;-71
2023/12/28 11:17:13;;;;;;;30.42;19.27;;;11.90;70.00;;;;;;5037272;28;20029;-71
2023/12/28 11:19:42;;;;;;;30.70;20.27;;;11.90;69.70;;;;;;5037553;28;20033;-71
2023/12/28 11:22:09;;;;;;;32.13;19.98;;;11.90;69.80;;;;;;5037110;28;20287;-71
2023/12/28 11:24:36;;;;;;;29.80;18.75;;;12.00;69.90;;;;;;5037323;28;20430;-71
2023/12/28 11:27:02;;;;;;;31.73;18.85;;;11.90;69.90;;;;;;5037039;28;20018;-71
2023/12/28 11:29:33;;;;;;;30.88;19.30;;;12.00;69.90;;;;;;5036986;28;20033;-71
2023/12/28 11:32:01;;;;;;;33.67;19.05;;;12.00;70.00;;;;;;5037531;28;20021;-71
2023/12/28 11:34:29;;;;;;;32.65;19.63;;;12.00;70.00;;;;;;5037160;28;20149;-71
2023/12/28 11:36:57;;;;;;;33.55;20.00;;;12.00;70.00;;;;;;5037461;28;20398;-71
2023/12/28 11:39:33;;;;;;;34.75;21.02;;;12.00;70.00;;;;;;5036815;28;20036;-71
2023/12/28 11:42:05;;;;;;;31.75;19.05;;;12.00;70.20;;;;;;5036776;28;20033;-71
2023/12/28 11:44:32;;;;;;;26.98;17.73;;;12.00;69.90;;;;;;5037001;28;20021;-71
2023/12/28 11:46:58;;;;;;;29.92;17.77;;;12.10;69.80;;;;;;5036128;28;20022;-71
2023/12/28 11:49:30;;;;;;;27.08;17.38;;;12.10;69.70;;;;;;5037232;28;20346;-71
2023/12/28 11:51:57;;;;;;;32.78;18.40;;;12.10;69.70;;;;;;5036897;28;20044;-71
2023/12/28 11:54:28;;;;;;;27.42;17.38;;;12.10;69.30;;;;;;5036526;28;20021;-71
2023/12/28 11:56:55;;;;;;;28.02;17.30;;;12.10;69.40;;;;;;5036477;28;20474;-71
2023/12/28 11:59:21;;;;;;;29.58;17.15;;;12.10;69.30;;;;;;5036980;28;20033;-71
2023/12/28 12:04:22;;;;;;;26.23;15.65;;;12.20;69.30;;;;;;5036281;28;20049;-71
2023/12/28 12:06:50;;;;;;;26.95;16.05;;;12.20;69.00;;;;;;5036334;28;20017;-71
2023/12/28 12:09:16;;;;;;;26.65;16.42;;;12.20;68.50;;;;;;5036225;28;20357;-71
2023/12/28 12:11:43;;;;;;;26.50;17.38;;;12.20;67.50;;;;;;5036479;28;20064;-71
2023/12/28 12:14:11;;;;;;;28.13;16.52;;;12.20;67.80;;;;;;5035234;28;20361;-71
2023/12/28 12:16:37;;;;;;;28.23;16.15;;;12.20;68.20;;;;;;5036130;28;20056;-71
2023/12/28 12:19:08;;;;;;;26.83;16.63;;;12.20;68.20;;;;;;5036176;28;20025;-71
2023/12/28 12:21:34;;;;;;;28.55;17.45;;;12.20;68.30;;;;;;5036021;28;20029;-71
2023/12/28 12:24:01;;;;;;;27.88;17.92;;;12.20;68.20;;;;;;5036019;28;20026;-71
2023/12/28 12:26:36;;;;;;;27.92;16.75;;;12.30;68.00;;;;;;5036521;28;20064;-71
2023/12/28 12:29:02;;;;;;;28.55;17.13;;;12.30;67.90;;;;;;5035899;28;20048;-71
2023/12/28 12:31:29;;;;;;;27.15;16.10;;;12.30;67.90;;;;;;5035670;28;20034;-71
2023/12/28 12:33:55;;;;;;;29.83;17.92;;;12.30;68.00;;;;;;5036008;28;20022;-71
2023/12/28 12:36:21;;;;;;;27.63;16.77;;;12.30;67.80;;;;;;5035819;28;20037;-71
2023/12/28 12:38:48;;;;;;;30.42;17.83;;;12.30;67.80;;;;;;5036302;28;20358;-71
2023/12/28 12:41:14;;;;;;;29.42;16.80;;;12.40;67.70;;;;;;5036238;28;20056;-71